sensor_id;sensor_type;location;lat;lon;timestamp;P1;durP1;ratioP1;P2;durP2;ratioP2
76113;SDS011;64845;53.086;5.834;2023-02-28T00:02:08;10.10;;;2.85;;
76113;SDS011;64845;53.086;5.834;2023-02-28T00:04:34;13.80;;;2.80;;
76113;SDS011;64845;53.086;5.834;2023-02-28T00:07:00;17.35;;;3.20;;
76113;SDS011;64845;53.086;5.834;2023-02-28T00:09:25;13.40;;;3.92;;
76113;SDS011;64845;53.086;5.834;2023-02-28T00:11:50;7.55;;;2.75;;
76113;SDS011;64845;53.086;5.834;2023-02-28T00:14:16;19.95;;;3.60;;
76113;SDS011;64845;53.086;5.834;2023-02-28T00:16:41;12.32;;;3.25;;
76113;SDS011;64845;53.086;5.834;2023-02-28T00:19:06;16.75;;;4.00;;
76113;SDS011;64845;53.086;5.834;2023-02-28T00:21:32;12.10;;;3.28;;
76113;SDS011;64845;53.086;5.834;2023-02-28T00:23:57;11.68;;;3.22;;
76113;SDS011;64845;53.086;5.834;2023-02-28T00:26:22;10.70;;;3.25;;
76113;SDS011;64845;53.086;5.834;2023-02-28T00:28:48;11.05;;;3.53;;
76113;SDS011;64845;53.086;5.834;2023-02-28T00:31:14;9.70;;;3.33;;
76113;SDS011;64845;53.086;5.834;2023-02-28T00:33:39;5.75;;;3.03;;
76113;SDS011;64845;53.086;5.834;2023-02-28T00:36:05;13.80;;;3.78;;
76113;SDS011;64845;53.086;5.834;2023-02-28T00:38:32;11.25;;;3.30;;
76113;SDS011;64845;53.086;5.834;2023-02-28T00:40:58;8.38;;;3.25;;
76113;SDS011;64845;53.086;5.834;2023-02-28T00:43:29;13.85;;;3.22;;
76113;SDS011;64845;53.086;5.834;2023-02-28T00:45:54;9.15;;;3.38;;
76113;SDS011;64845;53.086;5.834;2023-02-28T00:48:20;14.82;;;3.72;;
76113;SDS011;64845;53.086;5.834;2023-02-28T00:50:48;8.00;;;3.22;;
76113;SDS011;64845;53.086;5.834;2023-02-28T00:53:14;12.82;;;3.80;;
76113;SDS011;64845;53.086;5.834;2023-02-28T00:55:39;11.77;;;3.50;;
76113;SDS011;64845;53.086;5.834;2023-02-28T00:58:04;10.48;;;3.97;;
76113;SDS011;64845;53.086;5.834;2023-02-28T01:00:30;11.88;;;3.60;;
76113;SDS011;64845;53.086;5.834;2023-02-28T01:02:55;11.45;;;3.05;;
76113;SDS011;64845;53.086;5.834;2023-02-28T01:05:21;15.07;;;3.28;;
76113;SDS011;64845;53.086;5.834;2023-02-28T01:07:46;14.18;;;3.85;;
76113;SDS011;64845;53.086;5.834;2023-02-28T01:10:12;12.05;;;2.58;;
76113;SDS011;64845;53.086;5.834;2023-02-28T01:12:37;10.77;;;2.63;;
76113;SDS011;64845;53.086;5.834;2023-02-28T01:15:03;11.30;;;2.22;;
76113;SDS011;64845;53.086;5.834;2023-02-28T01:17:28;9.55;;;2.47;;
76113;SDS011;64845;53.086;5.834;2023-02-28T01:19:55;8.15;;;2.63;;
76113;SDS011;64845;53.086;5.834;2023-02-28T01:22:20;14.38;;;3.17;;
76113;SDS011;64845;53.086;5.834;2023-02-28T01:24:46;9.48;;;2.28;;
76113;SDS011;64845;53.086;5.834;2023-02-28T01:27:12;12.43;;;3.03;;
76113;SDS011;64845;53.086;5.834;2023-02-28T01:29:38;10.27;;;2.75;;
76113;SDS011;64845;53.086;5.834;2023-02-28T01:32:03;18.65;;;3.15;;
76113;SDS011;64845;53.086;5.834;2023-02-28T01:34:29;17.23;;;2.72;;
76113;SDS011;64845;53.086;5.834;2023-02-28T01:36:55;14.57;;;2.60;;
76113;SDS011;64845;53.086;5.834;2023-02-28T01:39:20;8.98;;;2.35;;
76113;SDS011;64845;53.086;5.834;2023-02-28T01:41:45;8.00;;;2.50;;
76113;SDS011;64845;53.086;5.834;2023-02-28T01:47:13;10.88;;;2.30;;
76113;SDS011;64845;53.086;5.834;2023-02-28T01:49:40;12.88;;;3.05;;
76113;SDS011;64845;53.086;5.834;2023-02-28T01:52:05;9.98;;;2.15;;
76113;SDS011;64845;53.086;5.834;2023-02-28T01:54:33;9.38;;;1.92;;
76113;SDS011;64845;53.086;5.834;2023-02-28T01:57:04;16.35;;;2.55;;
76113;SDS011;64845;53.086;5.834;2023-02-28T02:02:03;13.13;;;2.65;;
76113;SDS011;64845;53.086;5.834;2023-02-28T02:04:32;6.63;;;2.00;;
76113;SDS011;64845;53.086;5.834;2023-02-28T02:07:03;8.93;;;2.20;;
76113;SDS011;64845;53.086;5.834;2023-02-28T02:09:29;11.75;;;2.55;;
76113;SDS011;64845;53.086;5.834;2023-02-28T02:11:54;8.82;;;2.10;;
76113;SDS011;64845;53.086;5.834;2023-02-28T02:19:54;9.90;;;2.33;;
76113;SDS011;64845;53.086;5.834;2023-02-28T02:38:53;10.57;;;2.75;;
76113;SDS011;64845;53.086;5.834;2023-02-28T02:41:39;11.75;;;2.40;;
76113;SDS011;64845;53.086;5.834;2023-02-28T02:44:31;10.50;;;2.80;;
76113;SDS011;64845;53.086;5.834;2023-02-28T02:47:05;8.43;;;2.63;;
76113;SDS011;64845;53.086;5.834;2023-02-28T02:49:38;9.10;;;2.40;;
76113;SDS011;64845;53.086;5.834;2023-02-28T02:52:09;9.80;;;2.50;;
76113;SDS011;64845;53.086;5.834;2023-02-28T02:54:37;12.43;;;3.00;;
76113;SDS011;64845;53.086;5.834;2023-02-28T02:57:11;7.63;;;2.30;;
76113;SDS011;64845;53.086;5.834;2023-02-28T02:59:49;10.95;;;2.53;;
76113;SDS011;64845;53.086;5.834;2023-02-28T03:02:18;17.27;;;2.92;;
76113;SDS011;64845;53.086;5.834;2023-02-28T03:04:48;7.63;;;2.28;;
76113;SDS011;64845;53.086;5.834;2023-02-28T03:07:17;7.50;;;2.30;;
76113;SDS011;64845;53.086;5.834;2023-02-28T03:09:53;14.60;;;2.47;;
76113;SDS011;64845;53.086;5.834;2023-02-28T03:12:20;14.60;;;2.38;;
76113;SDS011;64845;53.086;5.834;2023-02-28T03:20:07;7.78;;;2.15;;
76113;SDS011;64845;53.086;5.834;2023-02-28T03:22:49;10.90;;;2.72;;
76113;SDS011;64845;53.086;5.834;2023-02-28T03:25:33;12.10;;;2.75;;
76113;SDS011;64845;53.086;5.834;2023-02-28T03:28:14;12.65;;;2.88;;
76113;SDS011;64845;53.086;5.834;2023-02-28T03:33:19;9.32;;;2.58;;
76113;SDS011;64845;53.086;5.834;2023-02-28T03:35:53;13.05;;;2.80;;
76113;SDS011;64845;53.086;5.834;2023-02-28T03:38:26;6.97;;;2.90;;
76113;SDS011;64845;53.086;5.834;2023-02-28T03:41:16;10.18;;;2.85;;
76113;SDS011;64845;53.086;5.834;2023-02-28T03:43:48;11.27;;;3.95;;
76113;SDS011;64845;53.086;5.834;2023-02-28T03:46:41;7.43;;;2.40;;
76113;SDS011;64845;53.086;5.834;2023-02-28T03:49:16;13.25;;;2.25;;
76113;SDS011;64845;53.086;5.834;2023-02-28T03:51:45;6.35;;;2.53;;
76113;SDS011;64845;53.086;5.834;2023-02-28T03:54:15;8.82;;;2.28;;
76113;SDS011;64845;53.086;5.834;2023-02-28T03:56:52;9.32;;;2.63;;
76113;SDS011;64845;53.086;5.834;2023-02-28T03:59:28;8.82;;;2.53;;
76113;SDS011;64845;53.086;5.834;2023-02-28T04:01:59;4.97;;;1.70;;
76113;SDS011;64845;53.086;5.834;2023-02-28T04:04:24;6.28;;;2.15;;
76113;SDS011;64845;53.086;5.834;2023-02-28T04:06:51;4.88;;;1.92;;
76113;SDS011;64845;53.086;5.834;2023-02-28T04:09:17;7.07;;;1.92;;
76113;SDS011;64845;53.086;5.834;2023-02-28T04:11:44;8.50;;;2.00;;
76113;SDS011;64845;53.086;5.834;2023-02-28T04:14:14;4.82;;;2.08;;
76113;SDS011;64845;53.086;5.834;2023-02-28T04:16:41;5.22;;;1.88;;
76113;SDS011;64845;53.086;5.834;2023-02-28T04:19:07;12.52;;;2.30;;
76113;SDS011;64845;53.086;5.834;2023-02-28T04:21:35;8.18;;;2.28;;
76113;SDS011;64845;53.086;5.834;2023-02-28T04:26:32;6.55;;;1.90;;
76113;SDS011;64845;53.086;5.834;2023-02-28T04:28:59;6.28;;;2.10;;
76113;SDS011;64845;53.086;5.834;2023-02-28T04:31:25;5.57;;;1.98;;
76113;SDS011;64845;53.086;5.834;2023-02-28T04:33:51;13.20;;;2.75;;
76113;SDS011;64845;53.086;5.834;2023-02-28T04:36:16;12.63;;;2.45;;
76113;SDS011;64845;53.086;5.834;2023-02-28T04:38:43;7.53;;;2.22;;
76113;SDS011;64845;53.086;5.834;2023-02-28T04:41:09;4.18;;;2.10;;
76113;SDS011;64845;53.086;5.834;2023-02-28T04:43:34;8.13;;;2.60;;
76113;SDS011;64845;53.086;5.834;2023-02-28T04:46:00;5.93;;;2.30;;
76113;SDS011;64845;53.086;5.834;2023-02-28T04:48:27;13.40;;;2.33;;
76113;SDS011;64845;53.086;5.834;2023-02-28T04:50:54;12.55;;;2.33;;
76113;SDS011;64845;53.086;5.834;2023-02-28T04:53:19;4.72;;;2.00;;
76113;SDS011;64845;53.086;5.834;2023-02-28T04:55:45;4.63;;;2.13;;
76113;SDS011;64845;53.086;5.834;2023-02-28T04:58:12;4.35;;;2.15;;
76113;SDS011;64845;53.086;5.834;2023-02-28T05:00:38;5.47;;;2.22;;
76113;SDS011;64845;53.086;5.834;2023-02-28T05:03:03;10.02;;;3.00;;
76113;SDS011;64845;53.086;5.834;2023-02-28T05:05:29;7.82;;;2.42;;
76113;SDS011;64845;53.086;5.834;2023-02-28T05:07:54;10.82;;;2.47;;
76113;SDS011;64845;53.086;5.834;2023-02-28T05:10:20;6.20;;;2.33;;
76113;SDS011;64845;53.086;5.834;2023-02-28T05:12:46;10.48;;;2.50;;
76113;SDS011;64845;53.086;5.834;2023-02-28T05:15:13;10.10;;;3.03;;
76113;SDS011;64845;53.086;5.834;2023-02-28T05:17:40;9.23;;;2.65;;
76113;SDS011;64845;53.086;5.834;2023-02-28T05:20:05;7.18;;;2.08;;
76113;SDS011;64845;53.086;5.834;2023-02-28T05:22:32;3.55;;;2.00;;
76113;SDS011;64845;53.086;5.834;2023-02-28T05:24:57;4.30;;;2.55;;
76113;SDS011;64845;53.086;5.834;2023-02-28T05:27:23;6.45;;;3.65;;
76113;SDS011;64845;53.086;5.834;2023-02-28T05:29:48;12.07;;;4.38;;
76113;SDS011;64845;53.086;5.834;2023-02-28T05:32:14;8.98;;;4.20;;
76113;SDS011;64845;53.086;5.834;2023-02-28T05:34:40;9.27;;;4.43;;
76113;SDS011;64845;53.086;5.834;2023-02-28T05:37:07;7.95;;;4.40;;
76113;SDS011;64845;53.086;5.834;2023-02-28T05:39:37;6.35;;;3.42;;
76113;SDS011;64845;53.086;5.834;2023-02-28T05:42:02;4.78;;;3.47;;
76113;SDS011;64845;53.086;5.834;2023-02-28T05:44:28;9.07;;;4.00;;
76113;SDS011;64845;53.086;5.834;2023-02-28T05:46:53;6.28;;;4.18;;
76113;SDS011;64845;53.086;5.834;2023-02-28T05:49:19;4.53;;;3.65;;
76113;SDS011;64845;53.086;5.834;2023-02-28T05:51:44;6.63;;;3.72;;
76113;SDS011;64845;53.086;5.834;2023-02-28T05:54:09;6.43;;;3.65;;
76113;SDS011;64845;53.086;5.834;2023-02-28T05:56:35;4.43;;;3.35;;
76113;SDS011;64845;53.086;5.834;2023-02-28T05:59:02;4.63;;;3.35;;
76113;SDS011;64845;53.086;5.834;2023-02-28T06:04:00;5.13;;;3.53;;
76113;SDS011;64845;53.086;5.834;2023-02-28T06:06:27;4.57;;;3.63;;
76113;SDS011;64845;53.086;5.834;2023-02-28T06:08:54;4.18;;;3.20;;
76113;SDS011;64845;53.086;5.834;2023-02-28T06:11:20;5.78;;;3.47;;
76113;SDS011;64845;53.086;5.834;2023-02-28T06:13:45;6.03;;;3.92;;
76113;SDS011;64845;53.086;5.834;2023-02-28T06:16:11;5.78;;;4.13;;
76113;SDS011;64845;53.086;5.834;2023-02-28T06:18:36;7.30;;;5.00;;
76113;SDS011;64845;53.086;5.834;2023-02-28T06:21:02;7.05;;;4.80;;
76113;SDS011;64845;53.086;5.834;2023-02-28T06:23:27;8.02;;;5.22;;
76113;SDS011;64845;53.086;5.834;2023-02-28T06:25:53;8.73;;;5.20;;
76113;SDS011;64845;53.086;5.834;2023-02-28T06:28:21;7.40;;;5.55;;
76113;SDS011;64845;53.086;5.834;2023-02-28T06:30:46;10.25;;;5.70;;
76113;SDS011;64845;53.086;5.834;2023-02-28T06:33:11;10.20;;;5.95;;
76113;SDS011;64845;53.086;5.834;2023-02-28T06:35:37;8.27;;;5.50;;
76113;SDS011;64845;53.086;5.834;2023-02-28T06:38:05;8.35;;;5.57;;
76113;SDS011;64845;53.086;5.834;2023-02-28T06:40:37;8.73;;;5.80;;
76113;SDS011;64845;53.086;5.834;2023-02-28T06:43:02;10.60;;;5.53;;
76113;SDS011;64845;53.086;5.834;2023-02-28T06:45:28;8.40;;;5.95;;
76113;SDS011;64845;53.086;5.834;2023-02-28T06:47:53;8.75;;;6.50;;
76113;SDS011;64845;53.086;5.834;2023-02-28T06:50:18;8.77;;;6.50;;
76113;SDS011;64845;53.086;5.834;2023-02-28T06:52:45;9.55;;;6.75;;
76113;SDS011;64845;53.086;5.834;2023-02-28T06:55:11;12.40;;;6.40;;
76113;SDS011;64845;53.086;5.834;2023-02-28T06:57:36;7.95;;;5.93;;
76113;SDS011;64845;53.086;5.834;2023-02-28T07:00:06;10.25;;;6.55;;
76113;SDS011;64845;53.086;5.834;2023-02-28T07:02:34;8.30;;;5.47;;
76113;SDS011;64845;53.086;5.834;2023-02-28T07:05:00;9.68;;;6.63;;
76113;SDS011;64845;53.086;5.834;2023-02-28T07:07:26;15.40;;;6.93;;
76113;SDS011;64845;53.086;5.834;2023-02-28T07:09:51;10.75;;;7.03;;
76113;SDS011;64845;53.086;5.834;2023-02-28T07:12:16;9.13;;;6.78;;
76113;SDS011;64845;53.086;5.834;2023-02-28T07:14:42;9.27;;;6.75;;
76113;SDS011;64845;53.086;5.834;2023-02-28T07:17:08;12.40;;;7.70;;
76113;SDS011;64845;53.086;5.834;2023-02-28T07:19:34;12.95;;;6.88;;
76113;SDS011;64845;53.086;5.834;2023-02-28T07:21:59;12.95;;;7.80;;
76113;SDS011;64845;53.086;5.834;2023-02-28T07:24:25;11.40;;;8.27;;
76113;SDS011;64845;53.086;5.834;2023-02-28T07:26:53;13.43;;;8.50;;
76113;SDS011;64845;53.086;5.834;2023-02-28T07:29:18;14.48;;;8.68;;
76113;SDS011;64845;53.086;5.834;2023-02-28T07:31:44;12.60;;;8.68;;
76113;SDS011;64845;53.086;5.834;2023-02-28T07:34:09;13.50;;;8.50;;
76113;SDS011;64845;53.086;5.834;2023-02-28T07:36:34;15.57;;;8.93;;
76113;SDS011;64845;53.086;5.834;2023-02-28T07:39:00;13.63;;;9.30;;
76113;SDS011;64845;53.086;5.834;2023-02-28T07:41:25;14.07;;;9.32;;
76113;SDS011;64845;53.086;5.834;2023-02-28T07:43:55;13.23;;;8.82;;
76113;SDS011;64845;53.086;5.834;2023-02-28T07:46:22;15.52;;;9.77;;
76113;SDS011;64845;53.086;5.834;2023-02-28T07:48:47;14.93;;;9.63;;
76113;SDS011;64845;53.086;5.834;2023-02-28T07:51:13;13.68;;;9.45;;
76113;SDS011;64845;53.086;5.834;2023-02-28T07:53:38;14.30;;;9.73;;
76113;SDS011;64845;53.086;5.834;2023-02-28T07:56:04;13.60;;;9.18;;
76113;SDS011;64845;53.086;5.834;2023-02-28T07:58:30;15.10;;;9.32;;
76113;SDS011;64845;53.086;5.834;2023-02-28T08:00:56;12.48;;;9.40;;
76113;SDS011;64845;53.086;5.834;2023-02-28T08:03:22;12.93;;;9.07;;
76113;SDS011;64845;53.086;5.834;2023-02-28T08:05:48;14.45;;;10.07;;
76113;SDS011;64845;53.086;5.834;2023-02-28T08:08:15;11.18;;;8.55;;
76113;SDS011;64845;53.086;5.834;2023-02-28T08:10:41;12.45;;;8.80;;
76113;SDS011;64845;53.086;5.834;2023-02-28T08:13:06;13.90;;;9.38;;
76113;SDS011;64845;53.086;5.834;2023-02-28T08:15:32;12.70;;;9.40;;
76113;SDS011;64845;53.086;5.834;2023-02-28T08:17:57;14.23;;;9.02;;
76113;SDS011;64845;53.086;5.834;2023-02-28T08:20:24;12.32;;;8.95;;
76113;SDS011;64845;53.086;5.834;2023-02-28T08:22:50;14.80;;;9.63;;
76113;SDS011;64845;53.086;5.834;2023-02-28T08:25:15;12.10;;;8.85;;
76113;SDS011;64845;53.086;5.834;2023-02-28T08:27:41;12.95;;;9.77;;
76113;SDS011;64845;53.086;5.834;2023-02-28T08:30:07;18.73;;;10.02;;
76113;SDS011;64845;53.086;5.834;2023-02-28T08:32:34;13.55;;;9.52;;
76113;SDS011;64845;53.086;5.834;2023-02-28T08:35:00;13.65;;;9.82;;
76113;SDS011;64845;53.086;5.834;2023-02-28T08:37:26;13.10;;;9.32;;
76113;SDS011;64845;53.086;5.834;2023-02-28T08:39:52;12.93;;;9.25;;
76113;SDS011;64845;53.086;5.834;2023-02-28T08:42:17;14.85;;;9.70;;
76113;SDS011;64845;53.086;5.834;2023-02-28T08:44:42;18.25;;;9.82;;
76113;SDS011;64845;53.086;5.834;2023-02-28T08:47:08;13.80;;;8.65;;
76113;SDS011;64845;53.086;5.834;2023-02-28T08:49:33;14.40;;;9.73;;
76113;SDS011;64845;53.086;5.834;2023-02-28T08:51:59;13.88;;;9.45;;
76113;SDS011;64845;53.086;5.834;2023-02-28T08:54:24;15.35;;;9.38;;
76113;SDS011;64845;53.086;5.834;2023-02-28T08:56:49;13.45;;;9.73;;
76113;SDS011;64845;53.086;5.834;2023-02-28T08:59:15;18.30;;;9.82;;
76113;SDS011;64845;53.086;5.834;2023-02-28T09:01:41;13.68;;;8.93;;
76113;SDS011;64845;53.086;5.834;2023-02-28T09:04:08;13.02;;;8.95;;
76113;SDS011;64845;53.086;5.834;2023-02-28T09:06:35;14.23;;;9.48;;
76113;SDS011;64845;53.086;5.834;2023-02-28T09:09:01;14.35;;;8.65;;
76113;SDS011;64845;53.086;5.834;2023-02-28T09:11:27;12.05;;;7.80;;
76113;SDS011;64845;53.086;5.834;2023-02-28T09:13:53;13.93;;;8.73;;
76113;SDS011;64845;53.086;5.834;2023-02-28T09:16:20;12.73;;;8.38;;
76113;SDS011;64845;53.086;5.834;2023-02-28T09:18:46;12.63;;;8.73;;
76113;SDS011;64845;53.086;5.834;2023-02-28T09:21:12;12.38;;;8.40;;
76113;SDS011;64845;53.086;5.834;2023-02-28T09:23:43;12.85;;;8.98;;
76113;SDS011;64845;53.086;5.834;2023-02-28T09:26:17;13.63;;;8.73;;
76113;SDS011;64845;53.086;5.834;2023-02-28T09:28:45;14.52;;;10.00;;
76113;SDS011;64845;53.086;5.834;2023-02-28T09:31:15;14.07;;;9.63;;
76113;SDS011;64845;53.086;5.834;2023-02-28T09:33:45;12.48;;;8.75;;
76113;SDS011;64845;53.086;5.834;2023-02-28T09:36:11;18.90;;;9.43;;
76113;SDS011;64845;53.086;5.834;2023-02-28T09:38:36;14.52;;;9.90;;
76113;SDS011;64845;53.086;5.834;2023-02-28T09:41:03;13.07;;;9.77;;
76113;SDS011;64845;53.086;5.834;2023-02-28T09:43:36;14.63;;;9.32;;
76113;SDS011;64845;53.086;5.834;2023-02-28T09:46:07;13.18;;;10.35;;
76113;SDS011;64845;53.086;5.834;2023-02-28T09:48:53;14.73;;;10.20;;
76113;SDS011;64845;53.086;5.834;2023-02-28T09:51:26;13.70;;;9.60;;
76113;SDS011;64845;53.086;5.834;2023-02-28T09:53:52;14.82;;;9.93;;
76113;SDS011;64845;53.086;5.834;2023-02-28T09:56:22;13.27;;;9.40;;
76113;SDS011;64845;53.086;5.834;2023-02-28T10:01:44;13.15;;;9.30;;
76113;SDS011;64845;53.086;5.834;2023-02-28T10:06:53;16.58;;;9.98;;
76113;SDS011;64845;53.086;5.834;2023-02-28T10:09:26;13.43;;;7.90;;
76113;SDS011;64845;53.086;5.834;2023-02-28T10:11:59;11.95;;;8.73;;
76113;SDS011;64845;53.086;5.834;2023-02-28T10:14:29;11.93;;;8.95;;
76113;SDS011;64845;53.086;5.834;2023-02-28T10:19:45;14.05;;;9.15;;
76113;SDS011;64845;53.086;5.834;2023-02-28T10:25:19;12.27;;;7.47;;
76113;SDS011;64845;53.086;5.834;2023-02-28T10:27:46;11.45;;;7.22;;
76113;SDS011;64845;53.086;5.834;2023-02-28T10:30:12;10.93;;;7.50;;
76113;SDS011;64845;53.086;5.834;2023-02-28T10:32:38;14.57;;;7.28;;
76113;SDS011;64845;53.086;5.834;2023-02-28T10:37:33;9.80;;;6.82;;
76113;SDS011;64845;53.086;5.834;2023-02-28T10:40:03;11.10;;;6.70;;
76113;SDS011;64845;53.086;5.834;2023-02-28T10:42:30;7.53;;;5.80;;
76113;SDS011;64845;53.086;5.834;2023-02-28T10:47:58;7.45;;;4.85;;
76113;SDS011;64845;53.086;5.834;2023-02-28T10:53:35;7.32;;;5.20;;
76113;SDS011;64845;53.086;5.834;2023-02-28T10:56:05;5.93;;;4.13;;
76113;SDS011;64845;53.086;5.834;2023-02-28T10:58:51;3.53;;;2.42;;
76113;SDS011;64845;53.086;5.834;2023-02-28T11:04:02;4.50;;;2.67;;
76113;SDS011;64845;53.086;5.834;2023-02-28T11:06:32;4.00;;;2.70;;
76113;SDS011;64845;53.086;5.834;2023-02-28T11:09:00;4.60;;;2.63;;
76113;SDS011;64845;53.086;5.834;2023-02-28T11:11:29;10.65;;;3.30;;
76113;SDS011;64845;53.086;5.834;2023-02-28T11:14:06;6.47;;;3.67;;
76113;SDS011;64845;53.086;5.834;2023-02-28T11:16:45;8.55;;;3.88;;
76113;SDS011;64845;53.086;5.834;2023-02-28T11:19:16;6.88;;;3.95;;
76113;SDS011;64845;53.086;5.834;2023-02-28T11:21:48;6.68;;;3.58;;
76113;SDS011;64845;53.086;5.834;2023-02-28T11:24:30;5.70;;;3.83;;
76113;SDS011;64845;53.086;5.834;2023-02-28T11:26:57;5.50;;;3.53;;
76113;SDS011;64845;53.086;5.834;2023-02-28T11:29:30;6.10;;;3.83;;
76113;SDS011;64845;53.086;5.834;2023-02-28T11:34:45;7.53;;;4.68;;
76113;SDS011;64845;53.086;5.834;2023-02-28T11:37:16;5.38;;;3.88;;
76113;SDS011;64845;53.086;5.834;2023-02-28T11:39:44;5.13;;;3.72;;
76113;SDS011;64845;53.086;5.834;2023-02-28T11:55:52;7.18;;;4.00;;
76113;SDS011;64845;53.086;5.834;2023-02-28T12:06:28;6.78;;;3.35;;
76113;SDS011;64845;53.086;5.834;2023-02-28T12:12:06;5.78;;;3.10;;
76113;SDS011;64845;53.086;5.834;2023-02-28T12:20:18;6.32;;;3.03;;
76113;SDS011;64845;53.086;5.834;2023-02-28T12:28:28;8.40;;;5.38;;
76113;SDS011;64845;53.086;5.834;2023-02-28T12:33:36;6.95;;;3.70;;
76113;SDS011;64845;53.086;5.834;2023-02-28T12:36:09;5.80;;;3.50;;
76113;SDS011;64845;53.086;5.834;2023-02-28T12:38:43;6.05;;;3.47;;
76113;SDS011;64845;53.086;5.834;2023-02-28T12:41:13;5.13;;;3.75;;
76113;SDS011;64845;53.086;5.834;2023-02-28T12:43:46;6.38;;;3.85;;
76113;SDS011;64845;53.086;5.834;2023-02-28T12:52:15;8.30;;;3.88;;
76113;SDS011;64845;53.086;5.834;2023-02-28T12:55:00;10.32;;;4.57;;
76113;SDS011;64845;53.086;5.834;2023-02-28T12:57:40;14.07;;;4.70;;
76113;SDS011;64845;53.086;5.834;2023-02-28T13:00:15;6.07;;;3.88;;
76113;SDS011;64845;53.086;5.834;2023-02-28T13:08:08;5.88;;;3.92;;
76113;SDS011;64845;53.086;5.834;2023-02-28T13:10:44;8.55;;;3.92;;
76113;SDS011;64845;53.086;5.834;2023-02-28T13:13:16;7.72;;;4.00;;
76113;SDS011;64845;53.086;5.834;2023-02-28T13:20:55;14.73;;;3.92;;
76113;SDS011;64845;53.086;5.834;2023-02-28T13:26:07;9.77;;;4.82;;
76113;SDS011;64845;53.086;5.834;2023-02-28T13:38:52;8.07;;;4.18;;
76113;SDS011;64845;53.086;5.834;2023-02-28T13:49:20;8.00;;;3.25;;
76113;SDS011;64845;53.086;5.834;2023-02-28T13:51:52;6.75;;;3.40;;
76113;SDS011;64845;53.086;5.834;2023-02-28T13:57:22;6.18;;;3.42;;
76113;SDS011;64845;53.086;5.834;2023-02-28T14:05:15;8.38;;;3.33;;
76113;SDS011;64845;53.086;5.834;2023-02-28T14:07:47;5.60;;;3.63;;
76113;SDS011;64845;53.086;5.834;2023-02-28T14:10:21;5.18;;;3.30;;
76113;SDS011;64845;53.086;5.834;2023-02-28T14:18:17;4.63;;;3.10;;
76113;SDS011;64845;53.086;5.834;2023-02-28T14:20:48;5.88;;;3.40;;
76113;SDS011;64845;53.086;5.834;2023-02-28T14:31:25;5.10;;;3.25;;
76113;SDS011;64845;53.086;5.834;2023-02-28T14:34:04;5.75;;;3.10;;
76113;SDS011;64845;53.086;5.834;2023-02-28T14:36:43;5.68;;;3.15;;
76113;SDS011;64845;53.086;5.834;2023-02-28T14:39:20;5.05;;;3.50;;
76113;SDS011;64845;53.086;5.834;2023-02-28T14:41:49;4.57;;;2.92;;
76113;SDS011;64845;53.086;5.834;2023-02-28T14:44:19;3.97;;;3.13;;
76113;SDS011;64845;53.086;5.834;2023-02-28T14:46:48;8.20;;;3.25;;
76113;SDS011;64845;53.086;5.834;2023-02-28T14:49:17;6.40;;;3.33;;
76113;SDS011;64845;53.086;5.834;2023-02-28T14:51:43;4.63;;;3.28;;
76113;SDS011;64845;53.086;5.834;2023-02-28T14:54:12;4.57;;;3.13;;
76113;SDS011;64845;53.086;5.834;2023-02-28T14:56:48;5.70;;;2.88;;
76113;SDS011;64845;53.086;5.834;2023-02-28T14:59:23;4.03;;;3.20;;
76113;SDS011;64845;53.086;5.834;2023-02-28T15:01:49;7.30;;;2.97;;
76113;SDS011;64845;53.086;5.834;2023-02-28T15:04:18;7.28;;;3.70;;
76113;SDS011;64845;53.086;5.834;2023-02-28T15:07:08;5.13;;;3.15;;
76113;SDS011;64845;53.086;5.834;2023-02-28T15:09:34;4.70;;;3.17;;
76113;SDS011;64845;53.086;5.834;2023-02-28T15:12:00;6.82;;;3.13;;
76113;SDS011;64845;53.086;5.834;2023-02-28T15:14:26;7.75;;;3.30;;
76113;SDS011;64845;53.086;5.834;2023-02-28T15:16:55;7.97;;;3.83;;
76113;SDS011;64845;53.086;5.834;2023-02-28T15:19:28;6.80;;;3.33;;
76113;SDS011;64845;53.086;5.834;2023-02-28T15:22:00;7.38;;;3.90;;
76113;SDS011;64845;53.086;5.834;2023-02-28T15:24:40;5.80;;;3.58;;
76113;SDS011;64845;53.086;5.834;2023-02-28T15:27:15;6.20;;;3.60;;
76113;SDS011;64845;53.086;5.834;2023-02-28T15:29:47;5.28;;;3.60;;
76113;SDS011;64845;53.086;5.834;2023-02-28T15:32:30;10.73;;;3.78;;
76113;SDS011;64845;53.086;5.834;2023-02-28T15:34:57;6.25;;;3.58;;
76113;SDS011;64845;53.086;5.834;2023-02-28T15:40:16;6.88;;;3.50;;
76113;SDS011;64845;53.086;5.834;2023-02-28T15:42:58;5.90;;;3.50;;
76113;SDS011;64845;53.086;5.834;2023-02-28T15:45:46;5.45;;;3.75;;
76113;SDS011;64845;53.086;5.834;2023-02-28T15:48:24;6.00;;;3.70;;
76113;SDS011;64845;53.086;5.834;2023-02-28T15:51:20;7.75;;;3.45;;
76113;SDS011;64845;53.086;5.834;2023-02-28T15:58:44;3.70;;;2.80;;
76113;SDS011;64845;53.086;5.834;2023-02-28T16:03:45;4.45;;;3.38;;
76113;SDS011;64845;53.086;5.834;2023-02-28T16:08:41;8.73;;;3.13;;
76113;SDS011;64845;53.086;5.834;2023-02-28T16:11:08;3.75;;;2.72;;
76113;SDS011;64845;53.086;5.834;2023-02-28T16:13:35;5.32;;;3.22;;
76113;SDS011;64845;53.086;5.834;2023-02-28T16:16:00;6.10;;;3.15;;
76113;SDS011;64845;53.086;5.834;2023-02-28T16:18:26;5.45;;;3.60;;
76113;SDS011;64845;53.086;5.834;2023-02-28T16:20:52;4.97;;;2.97;;
76113;SDS011;64845;53.086;5.834;2023-02-28T16:23:17;7.63;;;3.38;;
76113;SDS011;64845;53.086;5.834;2023-02-28T16:25:43;5.68;;;2.88;;
76113;SDS011;64845;53.086;5.834;2023-02-28T16:30:47;6.55;;;3.50;;
76113;SDS011;64845;53.086;5.834;2023-02-28T16:33:13;5.32;;;3.20;;
76113;SDS011;64845;53.086;5.834;2023-02-28T16:35:38;6.22;;;3.10;;
76113;SDS011;64845;53.086;5.834;2023-02-28T16:38:04;7.07;;;3.15;;
76113;SDS011;64845;53.086;5.834;2023-02-28T16:40:29;5.38;;;2.85;;
76113;SDS011;64845;53.086;5.834;2023-02-28T16:45:29;6.15;;;3.00;;
76113;SDS011;64845;53.086;5.834;2023-02-28T16:47:54;4.55;;;3.40;;
76113;SDS011;64845;53.086;5.834;2023-02-28T16:50:22;6.78;;;3.97;;
76113;SDS011;64845;53.086;5.834;2023-02-28T16:52:49;14.25;;;3.70;;
76113;SDS011;64845;53.086;5.834;2023-02-28T16:55:17;6.47;;;3.80;;
76113;SDS011;64845;53.086;5.834;2023-02-28T16:57:43;6.35;;;3.80;;
76113;SDS011;64845;53.086;5.834;2023-02-28T17:00:12;6.70;;;3.80;;
76113;SDS011;64845;53.086;5.834;2023-02-28T17:02:38;6.97;;;4.35;;
76113;SDS011;64845;53.086;5.834;2023-02-28T17:05:04;10.20;;;5.60;;
76113;SDS011;64845;53.086;5.834;2023-02-28T17:07:29;7.32;;;5.00;;
76113;SDS011;64845;53.086;5.834;2023-02-28T17:09:55;8.60;;;5.15;;
76113;SDS011;64845;53.086;5.834;2023-02-28T17:12:20;9.65;;;5.70;;
76113;SDS011;64845;53.086;5.834;2023-02-28T17:14:45;10.95;;;5.22;;
76113;SDS011;64845;53.086;5.834;2023-02-28T17:17:17;6.97;;;5.18;;
76113;SDS011;64845;53.086;5.834;2023-02-28T17:19:46;7.15;;;5.20;;
76113;SDS011;64845;53.086;5.834;2023-02-28T17:22:11;7.53;;;5.55;;
76113;SDS011;64845;53.086;5.834;2023-02-28T17:24:37;9.60;;;5.03;;
76113;SDS011;64845;53.086;5.834;2023-02-28T17:27:02;9.23;;;4.93;;
76113;SDS011;64845;53.086;5.834;2023-02-28T17:29:28;9.10;;;5.22;;
76113;SDS011;64845;53.086;5.834;2023-02-28T17:31:54;9.48;;;5.65;;
76113;SDS011;64845;53.086;5.834;2023-02-28T17:34:20;9.00;;;5.85;;
76113;SDS011;64845;53.086;5.834;2023-02-28T17:36:47;12.88;;;7.20;;
76113;SDS011;64845;53.086;5.834;2023-02-28T17:39:17;10.13;;;6.57;;
76113;SDS011;64845;53.086;5.834;2023-02-28T17:41:58;13.77;;;7.28;;
76113;SDS011;64845;53.086;5.834;2023-02-28T17:44:23;12.82;;;6.88;;
76113;SDS011;64845;53.086;5.834;2023-02-28T17:46:50;9.50;;;6.72;;
76113;SDS011;64845;53.086;5.834;2023-02-28T17:49:17;10.38;;;6.18;;
76113;SDS011;64845;53.086;5.834;2023-02-28T17:51:43;13.85;;;6.80;;